createdAt,value
2022-11-05T00:01:48.910Z,7.3
2022-11-05T00:06:48.895Z,7.2
2022-11-05T00:11:48.943Z,7.3
2022-11-05T00:16:48.882Z,7.3
2022-11-05T00:21:48.897Z,7.4
2022-11-05T00:26:49.361Z,7.4
2022-11-05T00:31:48.875Z,7.4
2022-11-05T00:36:49.008Z,7.4
2022-11-05T00:41:48.946Z,7.2
2022-11-05T00:46:48.896Z,7.1
2022-11-05T00:51:48.811Z,7.3
2022-11-05T00:56:48.808Z,7.3
2022-11-05T01:01:49.097Z,7.4
2022-11-05T01:06:48.960Z,7.4
2022-11-05T01:11:48.837Z,7.3
2022-11-05T01:31:48.939Z,7.4
2022-11-05T01:41:49.081Z,7.3
2022-11-05T01:51:56.448Z,7.3
2022-11-05T01:56:56.437Z,7.3
2022-11-05T02:01:56.503Z,7.3
2022-11-05T02:06:56.445Z,7.4
2022-11-05T02:11:56.445Z,7.3
2022-11-05T02:16:56.498Z,7.3
2022-11-05T02:21:56.485Z,7.3
2022-11-05T02:26:56.551Z,7.3
2022-11-05T02:31:56.430Z,7.3
2022-11-05T02:36:56.438Z,7.2
2022-11-05T02:41:59.268Z,7.2
2022-11-05T02:46:56.424Z,7.3
2022-11-05T02:51:56.488Z,7.3
2022-11-05T02:56:56.463Z,7.2
2022-11-05T03:01:56.649Z,7.1
2022-11-05T03:06:56.463Z,7.1
2022-11-05T03:11:56.453Z,7.1
2022-11-05T03:16:56.429Z,7
2022-11-05T03:21:56.458Z,7.1
2022-11-05T03:26:56.433Z,7.1
2022-11-05T03:31:56.529Z,7.1
2022-11-05T03:36:56.476Z,7.1
2022-11-05T03:41:56.536Z,7.1
2022-11-05T03:46:56.461Z,7.1
2022-11-05T03:51:56.486Z,7.1
2022-11-05T03:56:56.507Z,7.1
2022-11-05T04:01:56.541Z,7.1
2022-11-05T04:06:56.464Z,6.9
2022-11-05T04:11:56.449Z,6.9
2022-11-05T04:16:56.593Z,6.9
2022-11-05T04:21:56.463Z,6.9
2022-11-05T04:32:53.201Z,6.9
2022-11-05T04:36:56.812Z,6.9
2022-11-05T04:41:56.514Z,6.9
2022-11-05T04:46:56.643Z,7
2022-11-05T04:51:56.473Z,7.1
2022-11-05T04:56:56.435Z,7
2022-11-05T05:01:56.716Z,7.1
2022-11-05T05:06:56.514Z,7.1
2022-11-05T05:11:56.497Z,7
2022-11-05T05:16:56.566Z,7.1
2022-11-05T05:21:56.537Z,7.1
2022-11-05T05:26:56.547Z,7.1
2022-11-05T05:31:56.552Z,7.1
2022-11-05T05:36:56.429Z,7.1
2022-11-05T05:41:56.468Z,7.2
2022-11-05T05:46:56.434Z,7.1
2022-11-05T05:51:56.497Z,7.1
2022-11-05T05:56:56.410Z,7.2
2022-11-05T06:01:56.620Z,7.3
2022-11-05T06:06:56.510Z,7.4
2022-11-05T06:11:56.469Z,7.4
2022-11-05T06:16:56.467Z,7.4
2022-11-05T06:21:56.446Z,7.4
2022-11-05T06:27:03.787Z,7.4
2022-11-05T06:31:56.499Z,7.4
2022-11-05T06:36:56.471Z,7.4
2022-11-05T06:42:16.986Z,7.4
2022-11-05T06:47:32.308Z,7.5
2022-11-05T06:51:56.629Z,7.4
2022-11-05T06:56:56.487Z,7.5
2022-11-05T07:01:56.570Z,7.5
2022-11-05T07:06:56.469Z,7.6
2022-11-05T07:11:56.499Z,7.7
2022-11-05T07:16:56.422Z,7.8
2022-11-05T07:21:56.468Z,7.8
2022-11-05T07:26:56.394Z,7.8
2022-11-05T07:32:27.921Z,7.9
2022-11-05T07:36:56.606Z,7.9
2022-11-05T07:41:56.537Z,8
2022-11-05T07:46:56.446Z,8.1
2022-11-05T07:51:56.585Z,8.3
2022-11-05T07:56:56.471Z,8.3
2022-11-05T08:01:56.488Z,8.6
2022-11-05T08:06:56.484Z,8.4
2022-11-05T08:11:59.897Z,8.5
2022-11-05T08:16:56.503Z,8.8
2022-11-05T08:21:56.463Z,8.9
2022-11-05T08:26:56.666Z,8.9
2022-11-05T08:31:56.565Z,9
2022-11-05T08:36:56.502Z,9
2022-11-05T08:41:56.491Z,9.2
2022-11-05T08:46:56.527Z,9.1
2022-11-05T08:51:56.486Z,9.3
2022-11-05T08:56:56.649Z,9.3
2022-11-05T09:01:56.580Z,9.2
2022-11-05T09:06:56.435Z,9.3
2022-11-05T09:12:11.478Z,9.4
2022-11-05T09:16:56.642Z,9.4
2022-11-05T09:21:56.593Z,9.3
2022-11-05T09:26:59.353Z,9.7
2022-11-05T09:31:56.950Z,9.6
2022-11-05T09:37:01.007Z,9.6
2022-11-05T09:41:56.730Z,9.4
2022-11-05T09:46:56.907Z,9.1
2022-11-05T09:51:56.569Z,8.9
2022-11-05T09:56:56.751Z,9
2022-11-05T10:01:56.709Z,9
2022-11-05T10:06:56.889Z,9.1
2022-11-05T10:11:56.808Z,9.1
2022-11-05T10:16:57.090Z,9.4
2022-11-05T10:22:06.434Z,9.6
2022-11-05T10:26:56.880Z,9.8
2022-11-05T10:31:56.506Z,9.9
2022-11-05T10:36:56.560Z,10.6
2022-11-05T10:41:56.537Z,10.5
2022-11-05T10:46:56.495Z,10.6
2022-11-05T10:51:56.532Z,10.2
2022-11-05T10:56:56.472Z,10.1
2022-11-05T11:01:56.768Z,10.3
2022-11-05T11:06:56.601Z,10.3
2022-11-05T11:11:56.693Z,10.3
2022-11-05T11:16:56.649Z,10.6
2022-11-05T11:21:56.559Z,10.9
2022-11-05T11:26:56.695Z,11.3
2022-11-05T11:31:56.513Z,11.2
2022-11-05T11:36:56.496Z,11.1
2022-11-05T11:41:56.514Z,10.9
2022-11-05T11:46:56.619Z,10.8
2022-11-05T11:51:56.640Z,10.6
2022-11-05T11:56:56.546Z,10.4
2022-11-05T12:01:56.784Z,10.4
2022-11-05T12:06:56.566Z,10.6
2022-11-05T12:11:56.540Z,10.3
2022-11-05T12:16:56.633Z,10
2022-11-05T12:21:56.499Z,9.9
2022-11-05T12:26:56.832Z,10
2022-11-05T12:31:56.524Z,10.1
2022-11-05T12:36:56.601Z,10.1
2022-11-05T12:41:56.701Z,10.2
2022-11-05T12:46:56.634Z,10.4
2022-11-05T12:51:56.585Z,10.6
2022-11-05T12:56:56.744Z,10.4
2022-11-05T13:01:56.584Z,10.3
2022-11-05T13:06:56.645Z,10.1
2022-11-05T13:11:56.544Z,10.4
2022-11-05T13:16:56.532Z,10.4
2022-11-05T13:21:56.641Z,10.5
2022-11-05T13:26:56.808Z,10.1
2022-11-05T13:32:04.227Z,9.8
2022-11-05T13:36:56.527Z,9.7
2022-11-05T13:48:26.734Z,9.6
2022-11-05T13:51:56.592Z,9.6
2022-11-05T13:56:56.578Z,9.5
2022-11-05T14:01:56.734Z,9.6
2022-11-05T14:06:56.484Z,9.6
2022-11-05T14:11:56.479Z,9.5
2022-11-05T14:16:56.497Z,9.8
2022-11-05T14:21:56.621Z,9.8
2022-11-05T14:26:56.561Z,9.7
2022-11-05T14:32:08.654Z,9.4
2022-11-05T14:36:56.555Z,9.2
2022-11-05T14:41:56.465Z,9.2
2022-11-05T15:27:04.761Z,8.7
2022-11-05T15:32:03.706Z,8.6
2022-11-05T15:37:09.577Z,8.6
2022-11-05T15:42:08.033Z,8.6
2022-11-05T15:47:07.665Z,8.5
2022-11-05T15:57:07.642Z,8.6
2022-11-05T16:02:08.402Z,8.6
2022-11-05T16:07:07.689Z,8.5
2022-11-05T16:12:07.774Z,8.4
2022-11-05T16:17:07.696Z,8.4
2022-11-05T16:22:07.945Z,8.5
2022-11-05T16:27:07.676Z,8.4
2022-11-05T16:32:26.812Z,8.3
2022-11-05T16:37:07.577Z,8.3
2022-11-05T16:42:07.618Z,8.3
2022-11-05T16:47:07.610Z,8.3
2022-11-05T16:52:07.666Z,8.3
2022-11-05T16:57:07.664Z,8.4
2022-11-05T17:02:07.749Z,8.4
2022-11-05T17:07:07.639Z,8.3
2022-11-05T17:12:07.664Z,8.3
2022-11-05T17:17:07.650Z,8.3
2022-11-05T17:22:07.627Z,8.3
2022-11-05T17:27:07.757Z,8.2
2022-11-05T17:32:07.634Z,8.2
2022-11-05T17:37:07.601Z,8.2
2022-11-05T17:42:07.740Z,8.3
2022-11-05T17:47:07.648Z,8.3
2022-11-05T17:52:07.674Z,8.3
2022-11-05T17:57:07.684Z,8.2
2022-11-05T18:02:07.700Z,8.3
2022-11-05T18:07:07.672Z,8.2
2022-11-05T18:12:07.584Z,8.1
2022-11-05T18:17:07.697Z,8.1
2022-11-05T18:22:07.714Z,8.1
2022-11-05T18:27:07.728Z,8
2022-11-05T18:32:07.587Z,7.9
2022-11-05T18:37:07.596Z,7.9
2022-11-05T18:42:07.687Z,7.8
2022-11-05T18:47:07.666Z,7.6
2022-11-05T18:52:07.644Z,7.5
2022-11-05T18:57:07.911Z,7.6
2022-11-05T19:02:07.838Z,7.4
2022-11-05T19:07:07.895Z,7.4
2022-11-05T19:12:07.681Z,7.3
2022-11-05T19:17:07.709Z,7.1
2022-11-05T19:22:07.647Z,6.9
2022-11-05T19:52:07.894Z,6.9
2022-11-05T20:02:10.662Z,6.9
2022-11-05T20:12:07.811Z,7
2022-11-05T20:22:07.703Z,7.1
2022-11-05T20:27:07.773Z,7.1
2022-11-05T20:32:07.669Z,7.2
2022-11-05T20:37:07.683Z,7
2022-11-05T20:42:07.785Z,7.1
2022-11-05T20:47:07.662Z,7.1
2022-11-05T20:52:07.655Z,7.1
2022-11-05T20:57:07.632Z,7
2022-11-05T21:02:07.826Z,7.1
2022-11-05T21:07:15.118Z,7.1
2022-11-05T21:12:07.631Z,7.1
2022-11-05T21:17:18.137Z,7.1
2022-11-05T21:27:07.970Z,7.1
2022-11-05T21:32:08.175Z,7.1
2022-11-05T21:37:07.877Z,7.1
2022-11-05T21:42:07.905Z,7.1
2022-11-05T21:47:07.818Z,7.1
2022-11-05T21:52:07.676Z,7.1
2022-11-05T21:57:10.757Z,6.9
2022-11-05T22:02:07.885Z,7
2022-11-05T22:12:07.697Z,6.7
2022-11-05T22:17:07.632Z,6.6
2022-11-05T22:22:07.687Z,6.3
2022-11-05T22:27:07.653Z,6.2
2022-11-05T22:32:07.697Z,6
2022-11-05T22:37:07.796Z,5.9
2022-11-05T22:42:08.622Z,5.8
2022-11-05T22:57:11.660Z,5.8
2022-11-05T23:02:11.617Z,5.8
2022-11-05T23:07:11.790Z,5.6
2022-11-05T23:12:11.649Z,5.6
2022-11-05T23:17:11.649Z,5.4
2022-11-05T23:22:11.677Z,5.3
2022-11-05T23:27:11.572Z,5.3
2022-11-05T23:32:11.547Z,5.2
2022-11-05T23:37:11.590Z,5.1
2022-11-05T23:42:11.600Z,5.1
2022-11-05T23:47:11.583Z,5.1
2022-11-05T23:52:11.591Z,5
2022-11-05T23:57:11.553Z,4.9
